Time;durP1;ratioP1;P1;durP2;ratioP2;P2;SDS_P1;SDS_P2;PMS_P1;PMS_P2;Temp;Humidity;BMP_temperature;BMP_pressure;BME280_temperature;BME280_humidity;BME280_pressure;Samples;Min_cycle;Max_cycle;Signal;HPM_P1;HPM_P2
2022/07/26 00:02:12;;;;;;;;;;;;;;;23.96;54.63;100012.38;4863465;28;98082;-63
2022/07/26 00:05:05;;;;;;;;;;;;;;;23.93;54.74;100015.88;4880385;28;98913;-58
2022/07/26 00:08:09;;;;;;;;;;;;;;;23.91;54.89;100028.41;4881952;28;98031;-65
2022/07/26 00:11:05;;;;;;;;;;;;;;;23.87;54.61;100042.09;4881094;28;98189;-58
2022/07/26 00:13:58;;;;;;;;;;;;;;;23.87;54.58;100061.38;4881271;28;97880;-65
2022/07/26 00:16:51;;;;;;;;;;;;;;;23.85;54.80;100062.88;4882425;28;98408;-64
2022/07/26 00:19:43;;;;;;;;;;;;;;;23.83;54.54;100066.00;4865667;28;98143;-58
2022/07/26 00:23:00;;;;;;;;;;;;;;;23.83;54.70;100067.97;4866691;28;99182;-64
2022/07/26 00:25:46;;;;;;;;;;;;;;;23.83;54.46;100074.25;4882723;28;98675;-58
2022/07/26 00:28:40;;;;;;;;;;;;;;;23.81;54.51;100086.78;4881045;28;98586;-58
2022/07/26 00:31:32;;;;;;;;;;;;;;;23.80;54.36;100097.00;4881184;28;98367;-64
2022/07/26 00:34:25;;;;;;;;;;;;;;;23.75;54.05;100113.81;4881118;28;97767;-58
2022/07/26 00:37:17;;;;;;;;;;;;;;;23.73;54.34;100111.41;4880861;28;98356;-58
2022/07/26 00:40:10;;;;;;;;;;;;;;;23.70;53.85;100119.63;4881022;28;99285;-65
2022/07/26 00:43:03;;;;;;;;;;;;;;;23.68;53.76;100130.19;4880299;28;98152;-58
2022/07/26 00:45:55;;;;;;;;;;;;;;;23.64;53.76;100130.09;4880597;28;97833;-58
2022/07/26 00:48:48;;;;;;;;;;;;;;;23.62;53.56;100142.59;4880726;28;98211;-58
2022/07/26 00:51:40;;;;;;;;;;;;;;;23.59;53.17;100137.84;4880751;28;98936;-65
2022/07/26 00:54:33;;;;;;;;;;;;;;;23.54;53.23;100147.19;4880525;28;98091;-65
2022/07/26 00:57:26;;;;;;;;;;;;;;;23.50;52.89;100146.28;4879188;28;97968;-65
2022/07/26 01:00:20;;;;;;;;;;;;;;;23.48;52.78;100154.13;4880470;28;98470;-65
2022/07/26 01:03:12;;;;;;;;;;;;;;;23.46;52.59;100156.41;4880568;28;99099;-65
2022/07/26 01:06:05;;;;;;;;;;;;;;;23.43;52.66;100157.97;4881326;28;98982;-65
2022/07/26 01:08:57;;;;;;;;;;;;;;;23.41;52.39;100162.22;4881663;28;97906;-63
2022/07/26 01:11:50;;;;;;;;;;;;;;;23.38;52.57;100166.47;4879387;28;99652;-58
2022/07/26 01:14:52;;;;;;;;;;;;;;;23.36;52.46;100163.31;4861850;28;98286;-58
2022/07/26 01:17:46;;;;;;;;;;;;;;;23.33;52.31;100158.53;4861886;28;97824;-58
2022/07/26 01:20:38;;;;;;;;;;;;;;;23.33;52.29;100160.47;4873191;28;97932;-65
2022/07/26 01:23:31;;;;;;;;;;;;;;;23.29;52.24;100171.41;4880354;28;98449;-58
2022/07/26 01:26:23;;;;;;;;;;;;;;;23.26;51.92;100192.19;4879903;28;98174;-65
2022/07/26 01:29:16;;;;;;;;;;;;;;;23.24;51.86;100190.94;4881010;28;98126;-66
2022/07/26 01:32:08;;;;;;;;;;;;;;;23.24;51.79;100193.69;4874266;28;98422;-58
2022/07/26 01:35:01;;;;;;;;;;;;;;;23.22;51.93;100194.03;4879929;28;98465;-64
2022/07/26 01:37:54;;;;;;;;;;;;;;;23.20;51.66;100206.56;4879379;28;98846;-64
2022/07/26 01:40:46;;;;;;;;;;;;;;;23.17;51.74;100205.31;4880124;28;98028;-58
2022/07/26 01:43:39;;;;;;;;;;;;;;;23.16;51.57;100197.44;4880147;28;98667;-64
2022/07/26 01:46:31;;;;;;;;;;;;;;;23.14;51.46;100206.00;4880980;28;97979;-58
2022/07/26 01:49:24;;;;;;;;;;;;;;;23.09;51.40;100202.75;4879945;28;98354;-58
2022/07/26 01:52:28;;;;;;;;;;;;;;;23.07;51.28;100183.06;4879224;28;109178;-65
2022/07/26 01:55:20;;;;;;;;;;;;;;;23.06;51.07;100190.53;4880973;28;98016;-58
2022/07/26 01:58:13;;;;;;;;;;;;;;;23.05;51.22;100191.69;4880230;28;98319;-59
2022/07/26 02:01:05;;;;;;;;;;;;;;;23.06;51.11;100192.47;4880031;28;98385;-58
2022/07/26 02:03:58;;;;;;;;;;;;;;;23.05;51.17;100196.38;4879962;28;97998;-65
2022/07/26 02:06:51;;;;;;;;;;;;;;;23.05;51.02;100193.63;4869870;28;97949;-58
2022/07/26 02:09:43;;;;;;;;;;;;;;;23.02;51.09;100193.19;4879712;28;98554;-58
2022/07/26 02:12:36;;;;;;;;;;;;;;;23.01;51.11;100186.09;4879241;28;98184;-58
2022/07/26 02:15:29;;;;;;;;;;;;;;;22.99;50.81;100185.69;4879890;28;98044;-58
2022/07/26 02:18:22;;;;;;;;;;;;;;;23.00;51.04;100186.47;4880335;28;97961;-58
2022/07/26 02:21:14;;;;;;;;;;;;;;;22.99;50.88;100182.94;4878678;28;99500;-64
2022/07/26 02:24:07;;;;;;;;;;;;;;;22.98;51.09;100169.53;4880381;28;98023;-66
2022/07/26 02:27:00;;;;;;;;;;;;;;;22.97;50.98;100168.72;4875067;28;98430;-58
2022/07/26 02:29:52;;;;;;;;;;;;;;;22.94;51.20;100172.19;4875611;28;97707;-65
2022/07/26 02:32:45;;;;;;;;;;;;;;;22.94;51.29;100169.44;4878775;28;98495;-64
2022/07/26 02:35:38;;;;;;;;;;;;;;;22.90;51.38;100160.28;4882977;28;99222;-58
2022/07/26 02:38:31;;;;;;;;;;;;;;;22.89;51.25;100166.16;4863056;28;97751;-64
2022/07/26 02:41:24;;;;;;;;;;;;;;;22.85;51.33;100176.28;4879904;28;98142;-65
2022/07/26 02:44:16;;;;;;;;;;;;;;;22.82;51.57;100169.53;4879755;28;98691;-63
2022/07/26 02:47:09;;;;;;;;;;;;;;;22.79;51.61;100172.97;4862566;28;98153;-64
2022/07/26 02:50:02;;;;;;;;;;;;;;;22.76;51.66;100177.25;4867313;28;99532;-64
2022/07/26 02:52:54;;;;;;;;;;;;;;;22.74;51.72;100187.00;4881720;28;97849;-64
2022/07/26 02:55:47;;;;;;;;;;;;;;;22.71;51.95;100194.00;4882066;28;98527;-58
2022/07/26 02:58:39;;;;;;;;;;;;;;;22.69;51.90;100198.25;4882049;28;98584;-65
2022/07/26 03:01:34;;;;;;;;;;;;;;;22.67;51.99;100200.56;4882562;28;98002;-63
2022/07/26 03:04:26;;;;;;;;;;;;;;;22.65;52.04;100191.88;4882417;28;98185;-58
2022/07/26 03:07:19;;;;;;;;;;;;;;;22.63;52.15;100188.69;4881684;28;98043;-64
2022/07/26 03:10:12;;;;;;;;;;;;;;;22.61;52.09;100193.75;4882845;28;98265;-64
2022/07/26 03:13:04;;;;;;;;;;;;;;;22.60;52.10;100189.38;4881745;28;98232;-62
2022/07/26 03:15:57;;;;;;;;;;;;;;;22.57;52.18;100196.41;4884328;28;97749;-58
2022/07/26 03:18:50;;;;;;;;;;;;;;;22.55;52.22;100206.94;4883292;28;98786;-66
2022/07/26 03:21:42;;;;;;;;;;;;;;;22.53;52.30;100206.50;4878574;28;97896;-58
2022/07/26 03:24:35;;;;;;;;;;;;;;;22.52;52.44;100213.94;4882379;28;97911;-64
2022/07/26 03:27:28;;;;;;;;;;;;;;;22.52;52.43;100215.91;4882694;28;97955;-66
2022/07/26 03:30:20;;;;;;;;;;;;;;;22.50;52.30;100215.44;4882522;28;98143;-58
2022/07/26 03:33:13;;;;;;;;;;;;;;;22.49;52.37;100216.59;4866475;28;98261;-64
2022/07/26 03:36:05;;;;;;;;;;;;;;;22.46;52.38;100209.84;4881898;28;98071;-64
2022/07/26 03:38:58;;;;;;;;;;;;;;;22.45;52.40;100221.22;4881458;28;97935;-64
2022/07/26 03:41:50;;;;;;;;;;;;;;;22.41;52.59;100217.56;4862106;28;98595;-58
2022/07/26 03:44:43;;;;;;;;;;;;;;;22.37;52.59;100224.91;4877827;28;98204;-58
2022/07/26 03:47:36;;;;;;;;;;;;;;;22.33;52.64;100218.53;4881035;28;98196;-64
2022/07/26 03:50:28;;;;;;;;;;;;;;;22.32;52.58;100219.66;4882062;28;97862;-58
2022/07/26 03:53:21;;;;;;;;;;;;;;;22.29;52.65;100216.50;4880904;28;98585;-61
2022/07/26 03:59:37;;;;;;;;;;;;;;;22.24;52.75;100221.44;4880128;28;97831;-64
2022/07/26 04:02:30;;;;;;;;;;;;;;;22.23;52.84;100214.34;4876460;28;98261;-64
2022/07/26 04:05:22;;;;;;;;;;;;;;;22.25;53.10;100214.81;4871181;28;98632;-59
2022/07/26 04:08:15;;;;;;;;;;;;;;;22.28;53.13;100227.81;4881213;28;98376;-58
2022/07/26 04:11:08;;;;;;;;;;;;;;;22.31;53.06;100224.38;4878747;28;100091;-58
2022/07/26 04:14:00;;;;;;;;;;;;;;;22.37;53.16;100227.66;4886582;28;97842;-58
2022/07/26 04:16:53;;;;;;;;;;;;;;;22.41;53.08;100228.56;4880933;28;98713;-64
2022/07/26 04:19:46;;;;;;;;;;;;;;;22.44;53.03;100225.91;4881032;28;98929;-59
2022/07/26 04:22:38;;;;;;;;;;;;;;;22.50;53.24;100227.22;4879847;28;97949;-65
2022/07/26 04:25:33;;;;;;;;;;;;;;;22.54;53.15;100233.59;4875242;28;97984;-65
2022/07/26 04:28:27;;;;;;;;;;;;;;;22.58;53.05;100232.91;4875085;28;98446;-64
2022/07/26 04:31:20;;;;;;;;;;;;;;;22.60;53.26;100230.59;4880995;28;98308;-58
2022/07/26 04:34:13;;;;;;;;;;;;;;;22.63;53.01;100230.66;4880602;28;98058;-64
2022/07/26 04:37:05;;;;;;;;;;;;;;;22.65;53.33;100228.38;4881438;28;98361;-58
2022/07/26 04:39:58;;;;;;;;;;;;;;;22.69;53.03;100240.25;4880973;28;98515;-58
2022/07/26 04:42:51;;;;;;;;;;;;;;;22.73;53.09;100238.41;4877502;28;99002;-64
2022/07/26 04:45:44;;;;;;;;;;;;;;;22.78;53.19;100232.63;4870909;28;98193;-58
2022/07/26 04:48:36;;;;;;;;;;;;;;;22.82;53.17;100231.91;4874513;28;97701;-58
2022/07/26 04:51:29;;;;;;;;;;;;;;;22.84;53.37;100235.13;4879660;28;99024;-65
2022/07/26 04:54:22;;;;;;;;;;;;;;;22.86;53.26;100232.81;4880402;28;98660;-66
2022/07/26 04:57:14;;;;;;;;;;;;;;;22.89;53.14;100227.41;4879467;28;98376;-58
2022/07/26 05:00:07;;;;;;;;;;;;;;;22.94;53.21;100234.59;4880420;28;98706;-58
2022/07/26 05:03:01;;;;;;;;;;;;;;;22.94;53.19;100234.59;4962286;28;98328;-65
2022/07/26 05:05:53;;;;;;;;;;;;;;;22.88;53.33;100236.00;4874014;28;98280;-65
2022/07/26 05:08:46;;;;;;;;;;;;;;;22.79;53.67;100227.94;4881352;28;98261;-65
2022/07/26 05:11:38;;;;;;;;;;;;;;;22.68;53.78;100238.66;4882015;28;97860;-65
2022/07/26 05:14:31;;;;;;;;;;;;;;;22.63;53.71;100244.41;4879711;28;99136;-64
2022/07/26 05:17:23;;;;;;;;;;;;;;;22.59;53.81;100253.72;4881023;28;98169;-64
2022/07/26 05:20:16;;;;;;;;;;;;;;;22.55;53.89;100268.13;4880707;28;98044;-65
2022/07/26 05:23:08;;;;;;;;;;;;;;;22.53;54.29;100280.66;4879116;28;97906;-66
2022/07/26 05:26:01;;;;;;;;;;;;;;;22.50;54.58;100279.41;4871750;28;98469;-58
2022/07/26 05:28:54;;;;;;;;;;;;;;;22.49;55.12;100271.53;4879708;28;98066;-59
2022/07/26 05:31:47;;;;;;;;;;;;;;;22.47;54.87;100277.34;4867866;28;97813;-58
2022/07/26 05:34:39;;;;;;;;;;;;;;;22.46;55.26;100283.19;4881084;28;99790;-65
2022/07/26 05:37:32;;;;;;;;;;;;;;;22.47;56.02;100280.09;4880363;28;97764;-58
2022/07/26 05:40:25;;;;;;;;;;;;;;;22.55;55.45;100283.81;4882188;28;99119;-64
2022/07/26 05:43:18;;;;;;;;;;;;;;;22.65;55.44;100271.53;4879315;28;97652;-65
2022/07/26 05:46:10;;;;;;;;;;;;;;;22.78;55.08;100267.53;4879687;28;98018;-64
2022/07/26 05:49:03;;;;;;;;;;;;;;;22.98;55.26;100268.47;4879555;28;98675;-58
2022/07/26 05:51:56;;;;;;;;;;;;;;;23.15;54.93;100267.31;4881571;28;99031;-64
2022/07/26 05:54:48;;;;;;;;;;;;;;;23.20;54.93;100281.56;4879479;28;98111;-65
2022/07/26 05:57:46;;;;;;;;;;;;;;;23.24;54.98;100279.69;4878460;28;98211;-58
2022/07/26 06:00:38;;;;;;;;;;;;;;;23.24;55.21;100281.66;4878400;28;98087;-58
2022/07/26 06:03:31;;;;;;;;;;;;;;;23.20;55.23;100281.56;4879105;28;98599;-64
2022/07/26 06:06:24;;;;;;;;;;;;;;;23.20;55.32;100275.28;4880363;28;98115;-64
2022/07/26 06:09:16;;;;;;;;;;;;;;;23.23;55.54;100283.59;4879180;28;97922;-65
2022/07/26 06:12:09;;;;;;;;;;;;;;;23.30;55.54;100291.22;4869663;28;98786;-65
2022/07/26 06:15:02;;;;;;;;;;;;;;;23.44;55.35;100282.50;4881188;28;98727;-65
2022/07/26 06:17:57;;;;;;;;;;;;;;;23.60;55.06;100288.75;4960212;28;99418;-65
2022/07/26 06:20:50;;;;;;;;;;;;;;;23.84;54.63;100286.94;4931791;28;98263;-58
2022/07/26 06:23:42;;;;;;;;;;;;;;;24.15;54.52;100286.00;4879174;28;98648;-59
2022/07/26 06:26:35;;;;;;;;;;;;;;;24.55;53.72;100279.28;4879095;28;98441;-59
2022/07/26 06:29:28;;;;;;;;;;;;;;;24.85;53.46;100290.47;4879709;28;98262;-64
2022/07/26 06:32:20;;;;;;;;;;;;;;;25.10;53.16;100288.94;4878788;28;97683;-64
2022/07/26 06:35:13;;;;;;;;;;;;;;;25.38;53.06;100288.56;4871039;28;98577;-64
2022/07/26 06:38:06;;;;;;;;;;;;;;;25.57;53.06;100290.41;4874640;28;100108;-64
2022/07/26 06:40:58;;;;;;;;;;;;;;;25.82;52.70;100289.97;4878433;28;98039;-65
2022/07/26 06:43:51;;;;;;;;;;;;;;;26.22;52.28;100303.13;4879790;28;97960;-64
2022/07/26 06:46:44;;;;;;;;;;;;;;;26.49;51.69;100305.78;4879300;28;98640;-65
2022/07/26 06:49:36;;;;;;;;;;;;;;;26.77;51.16;100308.06;4862428;28;97818;-64
2022/07/26 06:52:31;;;;;;;;;;;;;;;26.95;50.97;100308.97;4878667;28;97667;-65
2022/07/26 06:55:24;;;;;;;;;;;;;;;27.02;50.88;100313.78;4879251;28;98140;-65
2022/07/26 06:58:17;;;;;;;;;;;;;;;27.13;50.88;100309.97;4876653;28;98396;-65
2022/07/26 07:01:09;;;;;;;;;;;;;;;27.30;50.30;100310.47;4878743;28;98462;-65
2022/07/26 07:04:02;;;;;;;;;;;;;;;27.62;49.70;100313.44;4858404;28;99958;-58
2022/07/26 07:06:56;;;;;;;;;;;;;;;27.99;49.23;100312.50;4871560;28;97967;-58
2022/07/26 07:09:49;;;;;;;;;;;;;;;28.11;48.77;100306.59;4877535;28;98634;-58
2022/07/26 07:12:43;;;;;;;;;;;;;;;27.88;48.93;100316.00;4878546;28;98288;-58
2022/07/26 07:15:36;;;;;;;;;;;;;;;27.60;49.21;100305.53;4878080;28;98641;-58
2022/07/26 07:18:28;;;;;;;;;;;;;;;27.59;49.03;100314.25;4879208;28;97802;-58
2022/07/26 07:21:21;;;;;;;;;;;;;;;27.50;48.92;100311.00;4882487;28;98758;-65
2022/07/26 07:24:14;;;;;;;;;;;;;;;27.36;49.07;100309.75;4881564;28;98236;-64
2022/07/26 07:27:06;;;;;;;;;;;;;;;27.74;48.09;100309.59;4873810;28;98475;-58
2022/07/26 07:29:59;;;;;;;;;;;;;;;27.97;47.83;100312.84;4881557;28;97995;-59
2022/07/26 07:32:51;;;;;;;;;;;;;;;28.20;47.35;100309.00;4880929;28;98586;-59
2022/07/26 07:35:44;;;;;;;;;;;;;;;28.68;46.77;100309.53;4881983;28;98834;-65
2022/07/26 07:38:36;;;;;;;;;;;;;;;29.18;45.79;100300.47;4863186;28;98206;-66
2022/07/26 07:41:29;;;;;;;;;;;;;;;29.09;45.65;100295.31;4862120;28;98100;-65
2022/07/26 07:44:22;;;;;;;;;;;;;;;28.81;45.60;100296.88;4862130;28;98028;-64
2022/07/26 07:47:15;;;;;;;;;;;;;;;28.89;44.89;100294.91;4870617;28;98218;-66
2022/07/26 07:50:07;;;;;;;;;;;;;;;28.95;44.04;100290.53;4881446;28;98301;-64
2022/07/26 07:53:00;;;;;;;;;;;;;;;29.13;44.01;100303.66;4881011;28;97900;-59
2022/07/26 07:55:53;;;;;;;;;;;;;;;28.82;43.87;100306.78;4874384;28;100100;-59
2022/07/26 07:58:45;;;;;;;;;;;;;;;28.72;43.79;100304.00;4880782;28;98670;-59
2022/07/26 08:01:38;;;;;;;;;;;;;;;29.11;42.88;100298.47;4880556;28;97802;-59
2022/07/26 08:04:31;;;;;;;;;;;;;;;29.03;42.63;100303.25;4881021;28;98042;-59
2022/07/26 08:07:24;;;;;;;;;;;;;;;28.95;42.49;100293.31;4880150;28;98511;-59
2022/07/26 08:10:16;;;;;;;;;;;;;;;28.80;42.32;100303.59;4876837;28;97793;-59
2022/07/26 08:13:09;;;;;;;;;;;;;;;28.81;42.46;100299.66;4876157;28;98051;-59
2022/07/26 08:16:01;;;;;;;;;;;;;;;28.76;42.60;100294.47;4882421;28;98572;-66
2022/07/26 08:18:55;;;;;;;;;;;;;;;28.58;42.39;100293.69;4875448;28;98155;-65
2022/07/26 08:21:47;;;;;;;;;;;;;;;28.23;42.81;100297.94;4878237;28;99134;-66
2022/07/26 08:24:40;;;;;;;;;;;;;;;27.82;43.25;100303.69;4880078;28;98261;-64
2022/07/26 08:27:32;;;;;;;;;;;;;;;27.49;43.35;100301.13;4871880;28;97738;-65
2022/07/26 08:30:25;;;;;;;;;;;;;;;27.23;43.59;100308.44;4880320;28;98336;-66
2022/07/26 08:33:18;;;;;;;;;;;;;;;27.21;43.37;100308.03;4861754;28;98667;-64
2022/07/26 08:36:10;;;;;;;;;;;;;;;28.36;41.67;100312.22;4872785;28;98389;-65
2022/07/26 08:39:03;;;;;;;;;;;;;;;28.57;41.87;100311.47;4881576;28;98206;-59
2022/07/26 08:41:56;;;;;;;;;;;;;;;28.77;41.25;100304.41;4879185;28;98586;-64
2022/07/26 08:44:48;;;;;;;;;;;;;;;29.68;39.99;100311.50;4880542;28;97977;-65
2022/07/26 08:47:41;;;;;;;;;;;;;;;30.32;39.37;100314.84;4880915;28;98529;-64
2022/07/26 08:50:34;;;;;;;;;;;;;;;31.93;37.56;100326.66;4881260;28;97802;-64
2022/07/26 08:53:26;;;;;;;;;;;;;;;32.43;36.84;100326.81;4881111;28;98623;-59
2022/07/26 08:56:19;;;;;;;;;;;;;;;34.02;34.23;100325.72;4880413;28;99114;-59
2022/07/26 08:59:12;;;;;;;;;;;;;;;35.69;32.51;100312.53;4874399;28;98076;-66
2022/07/26 09:02:14;;;;;;;;;;;;;;;35.63;32.08;100322.69;4881412;28;98075;-59
2022/07/26 09:05:10;;;;;;;;;;;;;;;35.05;32.01;100314.19;4877549;28;98535;-59
2022/07/26 09:08:03;;;;;;;;;;;;;;;35.73;30.61;100330.03;4877792;28;98409;-59
2022/07/26 09:10:56;;;;;;;;;;;;;;;38.06;28.88;100337.31;4879353;28;98100;-65
2022/07/26 09:14:17;;;;;;;;;;;;;;;39.32;27.22;100333.13;4880779;28;97906;-66
2022/07/26 09:17:21;;;;;;;;;;;;;;;40.42;26.25;100336.56;4866016;28;98346;-59
2022/07/26 09:20:34;;;;;;;;;;;;;;;41.56;24.77;100332.13;4879645;28;98962;-66
2022/07/26 09:23:27;;;;;;;;;;;;;;;41.90;24.21;100313.75;4879349;28;98177;-66
2022/07/26 09:26:21;;;;;;;;;;;;;;;41.62;24.11;100307.56;4942011;28;98015;-65
2022/07/26 09:29:27;;;;;;;;;;;;;;;42.04;23.53;100307.28;4874047;28;98852;-66
2022/07/26 09:32:31;;;;;;;;;;;;;;;42.36;23.13;100304.72;4879655;28;98218;-66
2022/07/26 09:35:36;;;;;;;;;;;;;;;41.56;23.72;100303.84;4961407;28;98008;-66
2022/07/26 09:38:29;;;;;;;;;;;;;;;40.62;24.19;100302.16;4880837;28;97972;-65
2022/07/26 09:41:45;;;;;;;;;;;;;;;39.35;24.78;100306.81;4879330;28;98474;-59
2022/07/26 09:45:02;;;;;;;;;;;;;;;38.23;25.36;100304.13;4887764;28;98395;-66
2022/07/26 09:48:15;;;;;;;;;;;;;;;38.58;24.90;100304.75;4869170;28;98345;-60
2022/07/26 09:51:08;;;;;;;;;;;;;;;41.11;23.50;100317.06;4877015;28;98243;-65
2022/07/26 09:54:10;;;;;;;;;;;;;;;42.31;22.82;100314.69;4879959;28;98284;-66
2022/07/26 09:57:20;;;;;;;;;;;;;;;42.61;22.50;100315.41;4879793;28;98423;-59
2022/07/26 10:00:13;;;;;;;;;;;;;;;43.01;21.75;100304.63;4878002;28;98131;-60
2022/07/26 10:03:06;;;;;;;;;;;;;;;42.92;21.56;100305.56;4880238;28;98702;-60
2022/07/26 10:05:58;;;;;;;;;;;;;;;41.39;22.12;100297.88;4879451;28;98281;-59
2022/07/26 10:08:51;;;;;;;;;;;;;;;39.86;23.58;100287.19;4879662;28;98994;-59
2022/07/26 10:11:44;;;;;;;;;;;;;;;40.19;23.04;100292.13;4875104;28;98054;-65
2022/07/26 10:14:56;;;;;;;;;;;;;;;42.44;21.60;100311.53;4879373;28;97971;-60
2022/07/26 10:18:07;;;;;;;;;;;;;;;40.57;22.85;100297.16;4879113;28;98364;-65
2022/07/26 10:21:43;;;;;;;;;;;;;;;39.92;22.77;100301.44;4879463;28;98791;-64
2022/07/26 10:24:48;;;;;;;;;;;;;;;38.27;24.33;100299.91;4848581;28;98249;-65
2022/07/26 10:28:00;;;;;;;;;;;;;;;38.18;24.25;100293.47;4860379;28;97778;-65
2022/07/26 10:30:53;;;;;;;;;;;;;;;39.48;23.25;100308.22;4865431;28;98662;-65
2022/07/26 10:33:47;;;;;;;;;;;;;;;41.65;21.79;100310.19;4879568;28;98786;-61
2022/07/26 10:37:10;;;;;;;;;;;;;;;43.47;20.61;100312.41;4879275;28;97936;-60
2022/07/26 10:40:03;;;;;;;;;;;;;;;45.27;19.43;100315.28;4942829;28;98199;-60
2022/07/26 10:43:18;;;;;;;;;;;;;;;42.42;21.28;100297.88;4916306;28;98405;-65
2022/07/26 10:46:45;;;;;;;;;;;;;;;40.36;21.95;100287.66;4871603;28;98200;-59
2022/07/26 10:49:38;;;;;;;;;;;;;;;38.62;23.07;100301.78;4905132;28;98474;-60
2022/07/26 10:52:48;;;;;;;;;;;;;;;41.37;20.69;100309.63;4879344;28;97792;-65
2022/07/26 10:55:41;;;;;;;;;;;;;;;43.30;19.77;100317.88;4881668;28;98578;-65
2022/07/26 10:58:33;;;;;;;;;;;;;;;44.89;18.85;100311.00;4880738;28;98348;-60
2022/07/26 11:01:26;;;;;;;;;;;;;;;43.98;19.33;100303.16;4881914;28;97895;-60
2022/07/26 11:04:29;;;;;;;;;;;;;;;42.82;20.47;100296.41;4882758;28;97816;-65
2022/07/26 11:07:22;;;;;;;;;;;;;;;43.66;19.29;100310.03;4869191;28;99190;-64
2022/07/26 11:10:15;;;;;;;;;;;;;;;45.16;18.52;100303.09;4882919;28;98503;-60
2022/07/26 11:13:37;;;;;;;;;;;;;;;46.12;17.94;100304.03;4932884;28;98170;-65
2022/07/26 11:16:30;;;;;;;;;;;;;;;46.95;17.61;100314.53;4910628;28;98132;-65
2022/07/26 11:19:43;;;;;;;;;;;;;;;47.46;16.92;100294.31;4920994;28;98681;-60
2022/07/26 11:22:46;;;;;;;;;;;;;;;47.91;16.61;100300.47;4863671;28;98421;-61
2022/07/26 11:25:39;;;;;;;;;;;;;;;47.88;16.88;100284.41;4876767;28;98159;-60
2022/07/26 11:28:31;;;;;;;;;;;;;;;47.93;16.57;100288.50;4882293;28;98349;-60
2022/07/26 11:31:24;;;;;;;;;;;;;;;48.04;16.21;100291.28;4881555;28;98163;-60
2022/07/26 11:34:23;;;;;;;;;;;;;;;47.90;16.13;100273.22;4881418;28;98409;-60
2022/07/26 11:37:17;;;;;;;;;;;;;;;47.73;16.54;100274.69;4881198;28;98478;-60
2022/07/26 11:40:09;;;;;;;;;;;;;;;45.27;17.75;100260.47;4881976;28;97997;-60
2022/07/26 11:43:02;;;;;;;;;;;;;;;43.66;18.13;100253.31;4863055;28;98733;-65
2022/07/26 11:45:58;;;;;;;;;;;;;;;42.13;19.30;100261.13;4881275;28;98780;-60
2022/07/26 11:49:02;;;;;;;;;;;;;;;40.84;20.26;100259.50;4882031;28;98037;-65
2022/07/26 11:52:06;;;;;;;;;;;;;;;39.76;20.64;100255.41;4881782;28;97785;-65
2022/07/26 11:55:07;;;;;;;;;;;;;;;38.89;21.30;100258.88;4881372;28;98790;-65
2022/07/26 11:58:00;;;;;;;;;;;;;;;39.34;20.94;100268.59;4881147;28;98075;-65
2022/07/26 12:00:53;;;;;;;;;;;;;;;40.91;20.25;100273.25;4881270;28;98299;-66
2022/07/26 12:03:45;;;;;;;;;;;;;;;42.03;19.98;100273.84;4882399;28;97951;-65
2022/07/26 12:06:38;;;;;;;;;;;;;;;42.87;19.10;100270.19;4880055;28;98147;-65
2022/07/26 12:10:03;;;;;;;;;;;;;;;43.70;18.51;100274.47;4879928;28;98174;-66
2022/07/26 12:12:55;;;;;;;;;;;;;;;43.58;18.14;100267.16;4890062;28;97883;-63
2022/07/26 12:15:59;;;;;;;;;;;;;;;41.88;19.30;100263.31;4881797;28;97986;-65
2022/07/26 12:18:58;;;;;;;;;;;;;;;40.39;20.76;100247.19;4879493;28;98264;-60
2022/07/26 12:22:02;;;;;;;;;;;;;;;39.26;21.16;100254.84;4880008;28;99353;-65
2022/07/26 12:25:15;;;;;;;;;;;;;;;38.28;21.58;100256.50;4879885;28;98762;-59
2022/07/26 12:28:08;;;;;;;;;;;;;;;37.32;22.17;100268.50;4957038;28;98380;-65
2022/07/26 12:31:00;;;;;;;;;;;;;;;36.50;22.84;100257.25;4880132;28;98503;-60
2022/07/26 12:34:12;;;;;;;;;;;;;;;35.78;23.31;100256.59;4934126;28;98391;-65
2022/07/26 12:37:06;;;;;;;;;;;;;;;35.02;23.96;100262.69;4879500;28;97988;-65
2022/07/26 12:40:11;;;;;;;;;;;;;;;34.32;24.61;100266.75;4879513;28;98302;-59
2022/07/26 12:43:15;;;;;;;;;;;;;;;33.66;24.96;100273.34;4881634;28;98399;-59
2022/07/26 12:46:07;;;;;;;;;;;;;;;33.08;25.67;100272.81;4871994;28;98617;-65
2022/07/26 12:49:00;;;;;;;;;;;;;;;32.60;26.21;100273.97;4881252;28;98052;-59
2022/07/26 12:51:52;;;;;;;;;;;;;;;32.18;26.57;100284.50;4881170;28;98069;-59
2022/07/26 12:54:45;;;;;;;;;;;;;;;31.79;27.06;100274.63;4880225;28;98284;-59
2022/07/26 12:57:38;;;;;;;;;;;;;;;31.49;27.51;100273.41;4876563;28;98755;-65
2022/07/26 13:00:31;;;;;;;;;;;;;;;31.26;27.99;100282.34;4880895;28;98017;-59
2022/07/26 13:03:24;;;;;;;;;;;;;;;31.09;28.25;100291.69;4880583;28;97855;-65
2022/07/26 13:06:16;;;;;;;;;;;;;;;30.93;28.22;100292.22;4880640;28;98231;-59
2022/07/26 13:09:09;;;;;;;;;;;;;;;30.80;28.91;100297.47;4878541;28;99661;-59
2022/07/26 13:12:02;;;;;;;;;;;;;;;30.75;28.91;100291.56;4880389;28;98144;-65
2022/07/26 13:14:55;;;;;;;;;;;;;;;30.83;28.95;100290.28;4880866;28;98063;-59
2022/07/26 13:17:47;;;;;;;;;;;;;;;31.03;28.92;100291.31;4880904;28;98542;-59
2022/07/26 13:20:40;;;;;;;;;;;;;;;32.58;27.66;100307.06;4880833;28;98172;-60
2022/07/26 13:23:32;;;;;;;;;;;;;;;32.49;28.15;100296.44;4881035;28;98358;-65
2022/07/26 13:26:25;;;;;;;;;;;;;;;32.93;27.95;100294.59;4881095;28;97933;-65
2022/07/26 13:29:17;;;;;;;;;;;;;;;33.39;27.21;100299.34;4879600;28;98795;-59
2022/07/26 13:32:10;;;;;;;;;;;;;;;34.01;27.25;100299.00;4879242;28;98533;-65
2022/07/26 13:35:02;;;;;;;;;;;;;;;34.45;26.52;100292.00;4880313;28;97965;-65
2022/07/26 13:37:55;;;;;;;;;;;;;;;35.09;26.45;100290.47;4880304;28;97893;-59
2022/07/26 13:40:49;;;;;;;;;;;;;;;35.31;26.17;100293.50;4880387;28;98476;-59
2022/07/26 13:43:42;;;;;;;;;;;;;;;35.38;25.67;100293.31;4877588;28;99776;-59
2022/07/26 13:46:35;;;;;;;;;;;;;;;35.02;25.58;100284.28;4877499;28;98354;-59
2022/07/26 13:49:28;;;;;;;;;;;;;;;34.15;26.75;100279.09;4879963;28;98081;-65
2022/07/26 13:52:21;;;;;;;;;;;;;;;33.56;26.71;100289.06;4860771;28;98419;-65
2022/07/26 13:55:14;;;;;;;;;;;;;;;33.13;27.43;100291.84;4865686;28;98323;-59
2022/07/26 13:58:07;;;;;;;;;;;;;;;32.77;27.80;100286.06;4877309;28;98123;-59
2022/07/26 14:00:59;;;;;;;;;;;;;;;32.46;28.20;100286.13;4879376;28;98744;-65
2022/07/26 14:03:52;;;;;;;;;;;;;;;32.16;28.04;100284.94;4879762;28;98388;-59
2022/07/26 14:06:44;;;;;;;;;;;;;;;31.89;28.26;100286.91;4879595;28;98502;-59
2022/07/26 14:09:37;;;;;;;;;;;;;;;31.69;28.47;100298.63;4878640;28;98149;-59
2022/07/26 14:12:30;;;;;;;;;;;;;;;31.60;28.71;100297.53;4880033;28;97679;-59
2022/07/26 14:15:23;;;;;;;;;;;;;;;31.63;28.65;100297.50;4879758;28;98261;-59
2022/07/26 14:18:15;;;;;;;;;;;;;;;31.84;28.57;100295.69;4879286;28;98532;-61
2022/07/26 14:21:08;;;;;;;;;;;;;;;31.94;28.69;100303.94;4879504;28;98072;-65
2022/07/26 14:24:01;;;;;;;;;;;;;;;31.83;28.93;100306.03;4879379;28;97936;-60
2022/07/26 14:26:54;;;;;;;;;;;;;;;31.63;29.23;100313.41;4878765;28;98284;-65
2022/07/26 14:29:46;;;;;;;;;;;;;;;31.38;29.37;100311.69;4880665;28;98535;-65
2022/07/26 14:32:39;;;;;;;;;;;;;;;31.12;29.78;100315.88;4882172;28;97852;-59
2022/07/26 14:35:31;;;;;;;;;;;;;;;30.84;29.71;100316.13;4883032;28;98242;-65
2022/07/26 14:38:25;;;;;;;;;;;;;;;30.54;30.05;100323.06;4881895;28;98455;-65
2022/07/26 14:41:17;;;;;;;;;;;;;;;30.17;31.06;100330.00;4882235;28;98606;-66
2022/07/26 14:44:10;;;;;;;;;;;;;;;29.81;31.48;100334.88;4881154;28;98652;-59
2022/07/26 14:47:03;;;;;;;;;;;;;;;29.40;32.18;100338.09;4881115;28;97862;-65
2022/07/26 14:49:56;;;;;;;;;;;;;;;29.04;33.03;100348.41;4862176;28;99507;-65
2022/07/26 14:52:50;;;;;;;;;;;;;;;28.72;33.20;100365.78;4881937;28;98211;-59
2022/07/26 14:55:42;;;;;;;;;;;;;;;28.42;33.80;100362.53;4883025;28;97789;-65
2022/07/26 14:58:35;;;;;;;;;;;;;;;28.13;34.18;100367.94;4872378;28;98104;-59
2022/07/26 15:01:27;;;;;;;;;;;;;;;27.89;34.54;100369.41;4881782;28;98287;-66